Flight Track Log - Related Links

Times and Time Zones

All times are in EDT time to prevent confusion due to time zone crossing. See the BVN7571 flight status page for this flight to view local times or setup timezone preferences in your user account.

Time Position Orientation Groundspeed Altitude Reporting Facility
EDT Latitude Longitude Course Direction KTS MPH feet Rate Location/Type
Thu 08:03:46 PM 40.7592 -98.9647 81° East 107 123 3,300  Level Minneapolis Center
Thu 08:04:48 PM 40.7647 -98.9164 81° East 122 140 4,000 677 Climbing Minneapolis Center
Thu 08:05:50 PM 40.7753 -98.8697 73° East 128 147 4,700 629 Climbing Minneapolis Center
Thu 08:06:52 PM 40.7850 -98.8203 75° East 133 153 5,300 677 Climbing Minneapolis Center
Thu 08:07:54 PM 40.7967 -98.7567 76° East 142 163 6,100 677 Climbing Minneapolis Center
Thu 08:08:56 PM 40.8078 -98.7056 74° East 143 165 6,700 432 Climbing Minneapolis Center
Thu 08:09:59 PM 40.8175 -98.6517 77° East 144 166 7,000 144 Climbing Minneapolis Center
Thu 08:11:01 PM 40.8283 -98.5906 77° East 157 181 7,000  Level Minneapolis Center
Thu 08:12:03 PM 40.8403 -98.5281 76° East 168 193 7,000  Level Minneapolis Center
Thu 08:13:05 PM 40.8531 -98.4667 75° East 170 196 7,000  Level Minneapolis Center
Thu 08:14:07 PM 40.8672 -98.3947 75° East 170 196 7,000  Level Minneapolis Center
Thu 08:15:09 PM 40.8783 -98.3331 77° East 170 196 7,000  Level Minneapolis Center
Thu 08:16:11 PM 40.8908 -98.2708 75° East 171 197 7,000  Level Minneapolis Center
Thu 08:17:14 PM 40.9033 -98.2106 75° East 171 197 7,000  Level Minneapolis Center
Thu 08:18:16 PM 40.9142 -98.1486 77° East 171 197 7,000  Level Minneapolis Center
Thu 08:19:18 PM 40.9269 -98.0736 77° East 171 197 7,000  Level Minneapolis Center
Thu 08:20:20 PM 40.9378 -98.0119 77° East 172 198 7,000  Level Minneapolis Center
Thu 08:21:22 PM 40.9483 -97.9503 77° East 172 198 7,000  Level Minneapolis Center
Thu 08:22:24 PM 40.9583 -97.8869 78° East 173 199 7,000  Level Minneapolis Center
Thu 08:23:26 PM 40.9717 -97.8247 74° East 174 200 7,000  Level Minneapolis Center
Thu 08:24:29 PM 40.9819 -97.7628 78° East 174 200 7,000  Level Minneapolis Center
Thu 08:25:31 PM 40.9947 -97.6892 77° East 174 200 7,000  Level Minneapolis Center
Thu 08:26:03 PM 40.9781 -97.6556 123° Southeast 174 200 7,000  Level Minneapolis Center
Thu 08:26:15 PM 40.9814 -97.6386 75° East 175 201 7,000  Level Minneapolis Center
Thu 08:26:33 PM 41.0058 -97.6258 22° Northeast 174 200 7,000  Level Minneapolis Center
Thu 08:27:16 PM 40.9928 -97.5769 109° East 175 201 7,000  Level Minneapolis Center
Thu 08:27:35 PM 41.0172 -97.5633 23° Northeast 174 200 7,000  Level Minneapolis Center
Thu 08:28:17 PM 41.0042 -97.5153 110° East 177 204 7,000  Level Minneapolis Center
Thu 08:28:37 PM 41.0275 -97.4992 28° Northeast 174 200 7,000  Level Minneapolis Center
Thu 08:29:18 PM 41.0175 -97.4478 104° East 178 205 7,000  Level Minneapolis Center
Thu 08:29:39 PM 41.0397 -97.4367 21° North 175 201 7,000  Level Minneapolis Center
Thu 08:30:19 PM 41.0308 -97.3858 103° East 179 206 7,000  Level Minneapolis Center
Thu 08:30:41 PM 41.0522 -97.3689 31° Northeast 176 203 7,000  Level Minneapolis Center
Thu 08:31:25 PM 41.0439 -97.3183 102° East 178 205 7,000  Level Minneapolis Center
Thu 08:31:43 PM 41.0633 -97.3058 26° Northeast 176 203 7,000  Level Minneapolis Center
Thu 08:32:26 PM 41.0550 -97.2511 101° East 176 203 7,000  Level Minneapolis Center
Thu 08:33:20 PM 41.0664 -97.1947 75° East 175 201 7,000  Level Minneapolis Center
Thu 08:33:48 PM 41.0881 -97.1669 44° Northeast 176 203 7,000  Level Minneapolis Center
Thu 08:34:21 PM 41.0775 -97.1303 111° Southeast 178 205 7,000  Level Minneapolis Center
Thu 08:34:50 PM 41.0986 -97.1022 45° Northeast 177 204 7,000  Level Minneapolis Center
Thu 08:35:22 PM 41.0908 -97.0681 107° East 177 204 7,000  Level Minneapolis Center
Thu 08:35:52 PM 41.1103 -97.0400 47° Northeast 177 204 7,000  Level Minneapolis Center
Thu 08:36:22 PM 41.1019 -97.0064 108° East 175 201 7,000  Level Minneapolis Center
Thu 08:36:54 PM 41.1203 -96.9767 51° Northeast 177 204 7,000  Level Minneapolis Center
Thu 08:37:23 PM 41.1128 -96.9389 105° East 173 199 7,000  Level Minneapolis Center
Thu 08:37:56 PM 41.1303 -96.9139 47° Northeast 176 203 7,000  Level Minneapolis Center
Thu 08:38:24 PM 41.1258 -96.8767 99° East 174 200 7,000  Level Minneapolis Center
Thu 08:38:58 PM 41.1425 -96.8525 48° Northeast 176 203 7,000  Level Minneapolis Center
Thu 08:39:24 PM 41.1372 -96.8175 101° East 171 197 7,000  Level Minneapolis Center
Thu 08:40:01 PM 41.1550 -96.7786 59° Northeast 174 200 7,000  Level Minneapolis Center
Thu 08:40:25 PM 41.1481 -96.7528 110° East 173 199 7,000  Level Minneapolis Center
Thu 08:41:03 PM 41.1658 -96.7156 58° Northeast 174 200 7,000  Level Minneapolis Center
Thu 08:41:26 PM 41.1611 -96.6906 104° East 173 199 7,000  Level Minneapolis Center
Thu 08:42:05 PM 41.1767 -96.6547 60° Northeast 174 200 7,000  Level Minneapolis Center
Thu 08:42:26 PM 41.1722 -96.6314 104° East 170 196 7,000  Level Minneapolis Center
Thu 08:43:07 PM 41.1875 -96.5933 62° Northeast 174 200 7,000  Level Minneapolis Center
Thu 08:43:27 PM 41.1831 -96.5694 104° East 170 196 7,000  Level Minneapolis Center
Thu 08:44:09 PM 41.1978 -96.5328 62° Northeast 173 199 7,000  Level Minneapolis Center
Thu 08:44:28 PM 41.1958 -96.5042 95° East 171 197 7,000  Level Minneapolis Center
Thu 08:45:11 PM 41.2086 -96.4706 63° Northeast 173 199 7,000  Level Minneapolis Center
Thu 08:45:28 PM 41.2047 -96.4453 102° East 171 197 7,000 -194 Level Minneapolis Center
Thu 08:46:13 PM 41.2192 -96.3967 68° East 172 198 6,800 -393 Descending Minneapolis Center
Thu 08:46:29 PM 41.2153 -96.3803 108° East 176 203 6,600 -667 Descending Minneapolis Center
Thu 08:47:16 PM 41.2300 -96.3289 69° East 180 207 6,100 -600 Descending Minneapolis Center
Thu 08:47:29 PM 41.2278 -96.3125 100° East 193 222 6,000 -581 Descending Minneapolis Center
Thu 08:48:18 PM 41.2419 -96.2614 70° East 184 212 5,500 -689 Descending Minneapolis Center
Thu 08:48:30 PM 41.2403 -96.2447 98° East 187 215 5,300 -740 Descending Minneapolis Center
Thu 08:49:31 PM 41.2528 -96.1767 76° East 184 212 4,600 -589 Descending Minneapolis Center
Thu 08:50:22 PM 41.2633 -96.1294 73° East 185 213 4,200 -645 Descending Minneapolis Center
Thu 08:51:32 PM 41.2717 -96.0469 82° East 181 208 3,300 -726 Descending Minneapolis Center
Thu 08:52:26 PM 41.2789 -95.9847 81° East 184 212 2,700 -694 Descending Minneapolis Center
Thu 08:53:33 PM 41.2814 -95.9072 88° East 178 205 1,900 -816 Descending Minneapolis Center
Thu 08:54:31 PM 41.2983 -95.8914 35° Northeast 164 189 1,000 -931 Descending Minneapolis Center
Thu 08:56:00 PM 41.3000 -95.8833 37° Northeast  Level FlightAware Approximate

Login

Don't have an account? Register now (free) for customized features, flight alerts, and more!